Key West, Florida
Current Conditions -  °F | °C
As of 11:53 AM on Tuesday 21 Oct 2014 (Local Time) from KEYW Reporting Station
Moderate Rain Moderate Rain  
Wind Chill: 24°   Ceiling: 3600
Heat Index: 24°   Visibility: 5mi
Dew Point: 24°   Wind: 3mph
Humidity: 100%   Direction: 70°ENE
Pressure: 30"   Gusts: NA
Location:  24.55°N, 81.8°W
Report Text: KEYW 211553Z 07003KT 5SM RA BR FEW010 BKN036 OVC045 24/24 A3000 RMK AO2 LTG DSNT SW-N SLP157 P0028 T02390239
Loading
Personal Weather Stations






























Interactive Weather Map New forecast layout! Learn more

10-Day Weather Forecast

Advertisements
Track Severe Weather on mobile